LEGE/GRO METAR and TAF weather

Enter ICAO airport designator
Station Type Date Time Source
LEGE METAR 2019/12/12 09:00 UTC NOAA

LEGE 120900Z VRB02KT 9999 BCFG SCT023 03/03 Q1015


Station Type Date Time Source
LEGE Decoded METAR 2019/12/12 09:00 UTC NOAA

Gerona / Costa Brava, Spain (LEGE) 41-54N 002-46E 129M
Dec 12, 2019 - 04:00 AM EST / 2019.12.12 0900 UTC
Wind: Variable at 2 MPH (2 KT):0
Visibility: greater than 7 mile(s):0
Sky conditions: partly cloudy
Weather: patches of fog
Temperature: 37 F (3 C)
Dew Point: 37 F (3 C)
Relative Humidity: 100%
Pressure (altimeter): 29.97 in. Hg (1015 hPa)
ob: LEGE 120900Z VRB02KT 9999 BCFG SCT023 03/03 Q1015
cycle: 9

Station Type Date Time Source
LEGE TAF 2019/12/12 06:27 UTC NOAA

TAF LEGE 120500Z 1206/1306 VRB04KT 9999 SCT060 TX14/1213Z TN04/1206Z
TEMPO 1212/1220 20010KT

Example: see airport list